首页
METAR-TAF:

METAR-TAF

机场 :

都柏林机场

都柏林, 爱尔兰

纬度: 53-26N, 经度: 006-15W, 海拔: 68米

当前天气观测

该预报发布于41分钟前的01:30 UTC
风速3节,风向北转西北
温度 7°C
湿度 100%
气压 1021 hPa
能见度10公里或以上
1500米以下无云,无积雨云

METAR: EIDW 310130Z 33003KT CAVOK 07/07 Q1021 NOSIG

时间: 03:11 (02:11 UTC)

预报

该预报发布于3小时和11分钟前的23:00 UTC
预报有效从31日的 00点(UTC)到 31日的 24点(UTC)
风速3节,风向多变
能见度10公里或以上
少量云层高于3500英尺
成为
从 31日的 03点(UTC)到 31日的 05点(UTC)
风速7节,风向东南
成为
从 31日的 06点(UTC)到 31日的 08点(UTC)
风速12节,风向东南
成为
从 31日的 10点(UTC)到 31日的 12点(UTC)
风速8节,风向
成为
从 31日的 19点(UTC)到 31日的 21点(UTC)
风速3节,风向多变
短暂存在
从 31日的 21点(UTC)到 31日的 24点(UTC)
风速5节,风向

TAF: EIDW 302300Z 3100/3124 VRB03KT 9999 FEW035 BECMG 3103/3105 13007KT BECMG 3106/3108 13012KT BECMG 3110/3112 09008KT BECMG 3119/3121 VRB03KT TEMPO 3121/3124 36005KT

超过4000个机场的气象观测和天气预报(METAR&TAF报告)。

可查询的气象台以黄色和红色小点在地图上表示。

将鼠标移到小点上方,可查看气象台名称。

然后点击查看天气观测和预报。

如需切换地图:点击带黑十字的绿色按钮放大地图;点击带横线的绿色按钮缩小地图;或者点击绿色箭头查看邻近地区的地图。


METAR-TAF: